Time;durP1;ratioP1;P1;durP2;ratioP2;P2;SDS_P1;SDS_P2;PMS_P1;PMS_P2;Temp;Humidity;BMP_temperature;BMP_pressure;BME280_temperature;BME280_humidity;BME280_pressure;Samples;Min_cycle;Max_cycle;Signal;HPM_P1;HPM_P2
2023/11/20 00:00:36;;;;;;;3.97;0.40;;;12.90;99.90;;;;;;5042651;28;20063;-71
2023/11/20 00:03:02;;;;;;;3.10;0.40;;;12.90;99.90;;;;;;5051525;28;20199;-71
2023/11/20 00:05:28;;;;;;;11.57;1.10;;;13.00;99.90;;;;;;5049845;28;20083;-71
2023/11/20 00:07:59;;;;;;;15.93;1.52;;;13.00;99.90;;;;;;5049988;28;20121;-71
2023/11/20 00:10:25;;;;;;;2.05;0.60;;;13.00;99.90;;;;;;5047549;28;20092;-71
2023/11/20 00:12:51;;;;;;;6.43;1.02;;;13.00;99.90;;;;;;5051454;28;20116;-71
2023/11/20 00:15:16;;;;;;;3.50;1.45;;;13.10;99.90;;;;;;5050103;28;20086;-71
2023/11/20 00:17:42;;;;;;;6.85;1.55;;;13.00;99.90;;;;;;5049904;28;20034;-71
2023/11/20 00:20:08;;;;;;;9.43;2.50;;;13.10;99.90;;;;;;5049862;28;20033;-72
2023/11/20 00:22:34;;;;;;;5.40;1.60;;;13.00;99.90;;;;;;5050372;28;20037;-74
2023/11/20 00:25:00;;;;;;;9.65;0.93;;;13.10;99.90;;;;;;5050668;28;20085;-71
2023/11/20 00:27:26;;;;;;;4.65;2.25;;;13.10;99.90;;;;;;5051472;28;20041;-70
2023/11/20 00:29:51;;;;;;;8.55;1.10;;;13.00;99.90;;;;;;5049386;28;20021;-70
2023/11/20 00:32:17;;;;;;;1.63;0.98;;;13.10;99.90;;;;;;5050259;28;20032;-71
2023/11/20 00:34:43;;;;;;;7.05;1.33;;;13.10;99.90;;;;;;5047993;28;20059;-72
2023/11/20 00:37:16;;;;;;;9.70;1.27;;;13.00;99.90;;;;;;5050663;28;20025;-72
2023/11/20 00:39:42;;;;;;;4.57;0.75;;;13.00;99.90;;;;;;5049558;28;20056;-71
2023/11/20 00:42:07;;;;;;;6.40;1.52;;;13.00;99.90;;;;;;5050572;28;20504;-72
2023/11/20 00:44:33;;;;;;;5.03;1.15;;;13.00;99.90;;;;;;5049891;28;20065;-72
2023/11/20 00:46:59;;;;;;;3.03;0.88;;;12.90;99.90;;;;;;5050630;28;20029;-71
2023/11/20 00:49:24;;;;;;;5.70;1.15;;;12.90;99.90;;;;;;5049095;28;20094;-69
2023/11/20 00:51:50;;;;;;;7.22;1.33;;;13.00;99.90;;;;;;5065782;28;20025;-70
2023/11/20 00:54:16;;;;;;;5.47;1.08;;;13.00;99.90;;;;;;5047493;28;20712;-71
2023/11/20 00:56:41;;;;;;;13.98;0.95;;;13.00;99.90;;;;;;5065899;28;20029;-70
2023/11/20 00:59:07;;;;;;;9.50;1.52;;;12.90;99.90;;;;;;5050239;28;20396;-70
2023/11/20 01:01:37;;;;;;;15.65;1.80;;;12.90;99.90;;;;;;5049652;28;20656;-70
2023/11/20 01:04:03;;;;;;;3.47;1.00;;;12.90;99.90;;;;;;5049240;28;20036;-71
2023/11/20 01:06:29;;;;;;;10.35;0.75;;;12.90;99.90;;;;;;5048605;28;20516;-71
2023/11/20 01:08:55;;;;;;;5.28;1.33;;;12.90;99.90;;;;;;5048946;28;20051;-71
2023/11/20 01:11:21;;;;;;;6.70;1.50;;;13.00;99.90;;;;;;5048770;28;20037;-70
2023/11/20 01:13:47;;;;;;;8.77;1.67;;;12.90;99.90;;;;;;5049166;28;20036;-71
2023/11/20 01:16:12;;;;;;;8.02;1.05;;;12.90;99.90;;;;;;5052029;28;20029;-71
2023/11/20 01:18:38;;;;;;;4.35;1.52;;;12.90;99.90;;;;;;5036536;28;20063;-71
2023/11/20 01:21:04;;;;;;;1.83;0.82;;;12.90;99.90;;;;;;5052533;28;20436;-71
2023/11/20 01:23:30;;;;;;;5.18;0.60;;;12.90;99.90;;;;;;5052532;28;20099;-71
2023/11/20 01:25:56;;;;;;;5.63;1.25;;;12.80;99.90;;;;;;5035849;28;20025;-71
2023/11/20 01:28:24;;;;;;;8.07;0.95;;;12.80;99.90;;;;;;5053532;28;20025;-71
2023/11/20 01:30:50;;;;;;;11.10;1.75;;;12.80;99.90;;;;;;5053368;28;20493;-71
2023/11/20 01:33:16;;;;;;;2.70;0.88;;;12.80;99.90;;;;;;5069851;28;20021;-70
2023/11/20 01:35:42;;;;;;;13.10;1.55;;;12.80;99.90;;;;;;5052055;28;20028;-70
2023/11/20 01:38:08;;;;;;;8.27;1.15;;;12.70;99.90;;;;;;5052342;28;20108;-70
2023/11/20 01:40:34;;;;;;;1.50;0.55;;;12.80;99.90;;;;;;5052022;28;20074;-70
2023/11/20 01:43:01;;;;;;;11.00;1.23;;;12.80;99.90;;;;;;5054079;28;20028;-71
2023/11/20 01:45:27;;;;;;;5.68;0.68;;;12.70;99.90;;;;;;5053250;28;20553;-71
2023/11/20 01:47:53;;;;;;;2.83;0.98;;;12.60;99.90;;;;;;5068854;28;20396;-71
2023/11/20 01:50:19;;;;;;;3.05;0.82;;;12.70;99.90;;;;;;5051922;28;20032;-71
2023/11/20 01:52:48;;;;;;;2.30;0.43;;;12.70;99.90;;;;;;5068209;28;20037;-71
2023/11/20 01:55:15;;;;;;;7.40;1.05;;;12.70;99.90;;;;;;5052029;28;20036;-71
2023/11/20 01:57:45;;;;;;;1.77;0.55;;;12.70;99.90;;;;;;5052057;28;20043;-71
2023/11/20 02:00:13;;;;;;;7.70;1.40;;;12.70;99.90;;;;;;5035415;28;20427;-71
2023/11/20 02:02:42;;;;;;;2.70;0.50;;;12.80;99.90;;;;;;5052188;28;20044;-71
2023/11/20 02:05:09;;;;;;;12.27;1.08;;;12.80;99.90;;;;;;5047392;28;20515;-72
2023/11/20 02:07:36;;;;;;;5.82;0.88;;;12.80;99.90;;;;;;5048654;28;20716;-71
2023/11/20 02:10:07;;;;;;;7.43;1.02;;;12.80;99.90;;;;;;5052186;28;20107;-71
2023/11/20 02:12:34;;;;;;;1.17;0.65;;;12.70;99.90;;;;;;5051926;28;20028;-71
2023/11/20 02:15:00;;;;;;;3.75;1.65;;;12.70;99.90;;;;;;5052499;28;20112;-71
2023/11/20 02:17:25;;;;;;;5.07;0.50;;;12.80;99.90;;;;;;5051640;28;20111;-71
2023/11/20 02:19:52;;;;;;;3.83;0.70;;;12.70;99.90;;;;;;5051294;28;20544;-71
2023/11/20 02:22:18;;;;;;;5.22;0.93;;;12.80;99.90;;;;;;5052800;28;20111;-71
2023/11/20 02:24:45;;;;;;;2.95;0.90;;;12.70;99.90;;;;;;5051433;28;20167;-70
2023/11/20 02:27:25;;;;;;;4.43;1.23;;;12.70;99.90;;;;;;5052356;28;20021;-71
2023/11/20 02:29:53;;;;;;;5.80;0.88;;;12.70;99.90;;;;;;5049150;28;20032;-71
2023/11/20 02:32:21;;;;;;;2.75;0.82;;;12.70;99.90;;;;;;5064445;28;20044;-70
2023/11/20 02:34:47;;;;;;;12.90;1.30;;;12.70;99.90;;;;;;5049000;28;20025;-70
2023/11/20 02:37:13;;;;;;;6.85;0.77;;;12.70;99.90;;;;;;5051321;28;20029;-70
2023/11/20 02:39:39;;;;;;;0.98;0.50;;;12.70;99.90;;;;;;5051634;28;20044;-71
2023/11/20 02:42:06;;;;;;;5.70;0.70;;;12.70;99.90;;;;;;5052613;28;20481;-70
2023/11/20 02:44:37;;;;;;;8.45;1.20;;;12.70;99.90;;;;;;5050545;28;20674;-71
2023/11/20 02:47:07;;;;;;;5.03;0.70;;;12.70;99.90;;;;;;5049314;28;20052;-71
2023/11/20 02:49:36;;;;;;;9.48;0.90;;;12.60;99.90;;;;;;5050208;28;20059;-71
2023/11/20 02:52:03;;;;;;;4.15;1.00;;;12.60;99.90;;;;;;5049859;28;20021;-70
2023/11/20 02:54:29;;;;;;;3.22;0.80;;;12.60;99.90;;;;;;5051662;28;20082;-70
2023/11/20 02:56:56;;;;;;;6.55;1.65;;;12.60;99.90;;;;;;5051376;28;20028;-71
2023/11/20 02:59:23;;;;;;;8.30;0.85;;;12.60;99.90;;;;;;5031307;28;20025;-71
2023/11/20 03:01:49;;;;;;;9.88;1.00;;;12.50;99.90;;;;;;5052283;28;20099;-71
2023/11/20 03:04:15;;;;;;;5.32;0.93;;;12.50;99.90;;;;;;5052516;28;20125;-71
2023/11/20 03:06:41;;;;;;;6.68;1.58;;;12.50;99.90;;;;;;5050591;28;20025;-71
2023/11/20 03:09:10;;;;;;;3.50;0.85;;;12.50;99.90;;;;;;5050547;28;20067;-71
2023/11/20 03:11:35;;;;;;;4.65;1.05;;;12.50;99.90;;;;;;5050030;28;20033;-71
2023/11/20 03:14:01;;;;;;;2.03;0.43;;;12.50;99.90;;;;;;5050579;28;20017;-70
2023/11/20 03:16:27;;;;;;;6.65;0.77;;;12.50;99.90;;;;;;5035281;28;20087;-71
2023/11/20 03:18:53;;;;;;;3.92;0.50;;;12.40;99.90;;;;;;5051462;28;20031;-71
2023/11/20 03:21:19;;;;;;;2.33;0.82;;;12.40;99.90;;;;;;5050126;28;20112;-71
2023/11/20 03:23:44;;;;;;;6.32;0.73;;;12.40;99.90;;;;;;5051703;28;20024;-71
2023/11/20 03:26:10;;;;;;;5.22;0.47;;;12.40;99.90;;;;;;5033181;28;20029;-71
2023/11/20 03:28:38;;;;;;;2.92;1.15;;;12.40;99.90;;;;;;5032724;28;20055;-71
2023/11/20 03:31:04;;;;;;;2.13;0.82;;;12.40;99.90;;;;;;5050941;28;20044;-71
2023/11/20 03:33:30;;;;;;;4.00;0.57;;;12.40;99.90;;;;;;5033830;28;20121;-71
2023/11/20 03:35:55;;;;;;;3.10;1.27;;;12.30;99.90;;;;;;5049797;28;20123;-71
2023/11/20 03:38:21;;;;;;;1.75;0.60;;;12.30;99.90;;;;;;5049590;28;20100;-71
2023/11/20 03:40:48;;;;;;;9.75;1.70;;;12.20;99.90;;;;;;5051105;28;20042;-71
2023/11/20 03:43:14;;;;;;;5.47;0.80;;;12.20;99.90;;;;;;5051713;28;20521;-72
2023/11/20 03:45:40;;;;;;;10.77;2.08;;;12.10;99.90;;;;;;5049555;28;20119;-71
2023/11/20 03:48:05;;;;;;;8.50;1.10;;;12.10;99.90;;;;;;5051147;28;20033;-71
2023/11/20 03:50:31;;;;;;;1.92;0.70;;;12.10;99.90;;;;;;5050644;28;20029;-71
2023/11/20 03:52:57;;;;;;;5.97;1.08;;;12.10;99.90;;;;;;5050211;28;20044;-72
2023/11/20 03:55:23;;;;;;;3.17;0.95;;;12.10;99.90;;;;;;5049440;28;20024;-71
2023/11/20 03:57:48;;;;;;;6.82;1.25;;;12.10;99.90;;;;;;5049799;28;20096;-71
2023/11/20 04:00:15;;;;;;;11.52;1.10;;;12.10;99.90;;;;;;5049020;28;20021;-71
2023/11/20 04:02:41;;;;;;;5.78;1.60;;;12.10;99.90;;;;;;5050999;28;20067;-72
2023/11/20 04:05:09;;;;;;;5.45;1.65;;;12.10;99.90;;;;;;5049151;28;20024;-71
2023/11/20 04:07:34;;;;;;;2.92;1.30;;;12.10;99.90;;;;;;5049393;28;20092;-71
2023/11/20 04:10:01;;;;;;;7.25;1.98;;;12.20;99.90;;;;;;5050529;28;20017;-70
2023/11/20 04:12:28;;;;;;;1.65;0.85;;;12.20;99.90;;;;;;5051176;28;20035;-69
2023/11/20 04:14:53;;;;;;;13.10;2.08;;;12.30;99.90;;;;;;5050624;28;20055;-70
2023/11/20 04:17:20;;;;;;;5.15;0.93;;;12.20;99.90;;;;;;5050011;28;20539;-70
2023/11/20 04:19:46;;;;;;;4.82;0.60;;;12.30;99.90;;;;;;5030562;28;20017;-71
2023/11/20 04:22:12;;;;;;;4.68;0.70;;;12.30;99.90;;;;;;5050008;28;20102;-70
2023/11/20 04:24:38;;;;;;;5.40;0.88;;;12.30;99.90;;;;;;5048896;28;20063;-70
2023/11/20 04:27:04;;;;;;;4.00;1.05;;;12.30;99.90;;;;;;5050841;28;20544;-70
2023/11/20 04:29:30;;;;;;;2.40;0.85;;;12.30;99.90;;;;;;5048488;28;20045;-71
2023/11/20 04:31:56;;;;;;;3.40;0.82;;;12.20;99.90;;;;;;5049659;28;20504;-71
2023/11/20 04:34:22;;;;;;;2.47;0.75;;;12.30;99.90;;;;;;5050411;28;20025;-71
2023/11/20 04:36:47;;;;;;;17.63;1.48;;;12.30;99.90;;;;;;5049617;28;20077;-71
2023/11/20 04:39:13;;;;;;;4.07;1.83;;;12.30;99.90;;;;;;5049382;28;20025;-71
2023/11/20 04:41:39;;;;;;;8.55;0.80;;;12.30;99.90;;;;;;5048892;28;20029;-71
2023/11/20 04:44:05;;;;;;;5.03;0.73;;;12.30;99.90;;;;;;5049689;28;20029;-71
2023/11/20 04:46:31;;;;;;;2.53;0.47;;;12.40;99.90;;;;;;5050291;28;20048;-71
2023/11/20 04:48:57;;;;;;;0.43;0.20;;;12.40;99.90;;;;;;5049943;28;20036;-70
2023/11/20 04:51:23;;;;;;;11.40;1.40;;;12.40;99.90;;;;;;5051846;28;20063;-70
2023/11/20 04:53:51;;;;;;;3.90;1.23;;;12.40;99.90;;;;;;5054652;28;20240;-71
2023/11/20 04:56:18;;;;;;;0.57;0.30;;;12.40;99.90;;;;;;5053851;28;20024;-71
2023/11/20 04:58:45;;;;;;;9.75;1.27;;;12.40;99.90;;;;;;5053826;28;20021;-71
2023/11/20 05:01:14;;;;;;;7.07;0.77;;;12.30;99.90;;;;;;5052608;28;20107;-71
2023/11/20 05:03:40;;;;;;;5.82;2.28;;;12.30;99.90;;;;;;5053158;28;20039;-71
2023/11/20 05:06:10;;;;;;;4.70;0.65;;;12.30;99.90;;;;;;5053760;28;20380;-70
2023/11/20 05:08:36;;;;;;;6.45;1.15;;;12.40;99.90;;;;;;5053772;28;20036;-71
2023/11/20 05:11:03;;;;;;;10.48;1.80;;;12.40;99.90;;;;;;5053048;28;20433;-71
2023/11/20 05:13:29;;;;;;;6.78;1.13;;;12.40;99.90;;;;;;5054127;28;20074;-71
2023/11/20 05:15:55;;;;;;;2.65;1.10;;;12.40;99.90;;;;;;5052202;28;20457;-70
2023/11/20 05:18:21;;;;;;;7.00;0.93;;;12.40;99.90;;;;;;5052578;28;20032;-70
2023/11/20 05:20:47;;;;;;;9.10;1.98;;;12.30;99.90;;;;;;5052604;28;20119;-71
2023/11/20 05:23:13;;;;;;;2.83;0.80;;;12.30;99.90;;;;;;5054173;28;20365;-72
2023/11/20 05:25:39;;;;;;;0.30;0.20;;;12.30;99.90;;;;;;5053179;28;20235;-71
2023/11/20 05:28:04;;;;;;;3.08;1.00;;;12.30;99.90;;;;;;5052116;28;20021;-71
2023/11/20 05:30:30;;;;;;;2.13;0.73;;;12.30;99.90;;;;;;5052112;28;20111;-71
2023/11/20 05:32:59;;;;;;;0.38;0.20;;;12.30;99.90;;;;;;5053834;28;20029;-71
2023/11/20 05:35:24;;;;;;;5.43;1.48;;;12.30;99.90;;;;;;5053012;28;20029;-71
2023/11/20 05:37:50;;;;;;;4.00;0.40;;;12.20;99.90;;;;;;5046620;28;20031;-71
2023/11/20 05:40:17;;;;;;;2.92;0.80;;;12.10;99.90;;;;;;5029542;28;20033;-71
2023/11/20 05:42:44;;;;;;;2.60;0.88;;;12.10;99.90;;;;;;5028605;28;20025;-70
2023/11/20 05:45:09;;;;;;;4.68;0.40;;;12.10;99.90;;;;;;5035792;28;20049;-70
2023/11/20 05:47:35;;;;;;;8.43;1.73;;;12.10;99.90;;;;;;5053057;28;20138;-71
2023/11/20 05:50:01;;;;;;;0.70;0.50;;;12.00;99.90;;;;;;5050745;28;20025;-70
2023/11/20 05:52:29;;;;;;;6.80;0.63;;;12.00;99.90;;;;;;5050718;28;20041;-70
2023/11/20 05:54:55;;;;;;;12.80;1.40;;;12.00;99.90;;;;;;5053010;28;20053;-70
2023/11/20 05:57:24;;;;;;;3.40;0.65;;;12.00;99.90;;;;;;5050768;28;20048;-70
2023/11/20 05:59:50;;;;;;;1.27;0.52;;;12.00;99.90;;;;;;5050296;28;20105;-71
2023/11/20 06:02:16;;;;;;;7.10;1.10;;;12.10;99.90;;;;;;5049946;28;20694;-70
2023/11/20 06:04:42;;;;;;;3.20;0.88;;;12.10;99.90;;;;;;5053136;28;20686;-71
2023/11/20 06:07:08;;;;;;;14.25;1.83;;;12.00;99.90;;;;;;5032581;28;20040;-71
2023/11/20 06:09:33;;;;;;;5.38;1.20;;;12.10;99.90;;;;;;5051260;28;20032;-70
2023/11/20 06:11:59;;;;;;;8.90;1.88;;;12.00;99.90;;;;;;5047914;28;20603;-70
2023/11/20 06:14:25;;;;;;;4.13;1.00;;;12.00;99.90;;;;;;5051972;28;20079;-71
2023/11/20 06:16:51;;;;;;;9.75;1.15;;;12.00;99.90;;;;;;5053298;28;20116;-71
2023/11/20 06:19:16;;;;;;;4.70;1.13;;;12.00;99.90;;;;;;5053767;28;20029;-71
2023/11/20 06:21:49;;;;;;;8.35;1.05;;;11.90;99.90;;;;;;5052312;28;20674;-72
2023/11/20 06:24:16;;;;;;;1.27;0.47;;;12.00;99.90;;;;;;5056506;28;20033;-71
2023/11/20 06:26:42;;;;;;;5.72;0.93;;;11.90;99.90;;;;;;5054246;28;20025;-71
2023/11/20 06:29:09;;;;;;;9.05;0.73;;;11.90;99.90;;;;;;5052665;28;20029;-71
2023/11/20 06:31:35;;;;;;;2.55;0.45;;;11.90;99.90;;;;;;5050601;28;20493;-72
2023/11/20 06:34:01;;;;;;;11.13;0.90;;;11.90;99.90;;;;;;5052992;28;20032;-71
2023/11/20 06:36:27;;;;;;;2.42;0.82;;;11.80;99.90;;;;;;5051797;28;20029;-72
2023/11/20 06:38:53;;;;;;;2.25;0.55;;;11.80;99.90;;;;;;5051486;28;20064;-72
2023/11/20 06:41:19;;;;;;;1.27;0.60;;;11.90;99.90;;;;;;5051099;28;20032;-71
2023/11/20 06:43:45;;;;;;;8.23;0.70;;;11.70;99.90;;;;;;5051492;28;20036;-68
2023/11/20 06:46:22;;;;;;;7.43;1.42;;;11.70;99.90;;;;;;5048044;28;20029;-70
2023/11/20 06:48:48;;;;;;;8.88;0.95;;;11.70;99.90;;;;;;5067754;28;20135;-70
2023/11/20 06:51:15;;;;;;;4.75;0.90;;;11.70;99.90;;;;;;5050916;28;20032;-70
2023/11/20 06:53:43;;;;;;;9.57;1.17;;;11.60;99.90;;;;;;5052909;28;20021;-69
2023/11/20 06:56:21;;;;;;;4.07;0.60;;;11.50;99.90;;;;;;5048464;28;20056;-69
2023/11/20 06:58:48;;;;;;;6.93;0.95;;;11.40;99.90;;;;;;5051722;28;20052;-69
2023/11/20 07:01:13;;;;;;;3.40;0.47;;;11.40;99.90;;;;;;5049447;28;20472;-68
2023/11/20 07:03:42;;;;;;;7.63;1.17;;;11.40;99.90;;;;;;5059642;28;20037;-69
2023/11/20 07:06:15;;;;;;;5.53;0.60;;;11.40;99.90;;;;;;5064404;28;20075;-69
2023/11/20 07:08:42;;;;;;;1.55;0.32;;;11.30;99.90;;;;;;5050823;28;20017;-69
2023/11/20 07:11:08;;;;;;;4.22;0.85;;;11.20;99.90;;;;;;5047377;28;20107;-70
2023/11/20 07:13:34;;;;;;;3.50;0.30;;;11.30;99.90;;;;;;5064717;28;20025;-69
2023/11/20 07:16:01;;;;;;;5.28;0.60;;;11.30;99.90;;;;;;5051349;28;20025;-69
2023/11/20 07:18:27;;;;;;;5.13;0.70;;;11.20;99.90;;;;;;5050349;28;20021;-69
2023/11/20 07:20:54;;;;;;;5.07;0.85;;;11.20;99.90;;;;;;5050641;28;20031;-69
2023/11/20 07:23:21;;;;;;;1.25;0.60;;;11.20;99.90;;;;;;5063936;28;20473;-69
2023/11/20 07:25:53;;;;;;;8.82;0.85;;;11.20;99.90;;;;;;5063869;28;20306;-70
2023/11/20 07:28:20;;;;;;;0.80;0.50;;;11.20;99.90;;;;;;5030630;28;20036;-72
2023/11/20 07:30:47;;;;;;;7.20;1.80;;;11.20;99.90;;;;;;5043411;28;20366;-69
2023/11/20 07:33:14;;;;;;;3.85;1.05;;;11.20;99.90;;;;;;5051288;28;20057;-69
2023/11/20 07:35:40;;;;;;;0.77;0.30;;;11.20;99.90;;;;;;5051895;28;20446;-69
2023/11/20 07:38:06;;;;;;;2.80;0.88;;;11.30;99.90;;;;;;5046284;28;20033;-70
2023/11/20 07:40:32;;;;;;;6.13;0.82;;;11.30;99.90;;;;;;5049534;28;20068;-69
2023/11/20 07:42:59;;;;;;;6.70;0.95;;;11.30;99.90;;;;;;5046428;28;20454;-69
2023/11/20 07:45:24;;;;;;;7.30;0.52;;;11.40;99.90;;;;;;5047209;28;20083;-68
2023/11/20 07:47:50;;;;;;;2.13;0.90;;;11.40;99.90;;;;;;5049210;28;20415;-71
2023/11/20 07:50:16;;;;;;;2.30;1.63;;;11.50;99.90;;;;;;5050662;28;20029;-69
2023/11/20 07:52:42;;;;;;;12.80;1.13;;;11.50;99.90;;;;;;5046439;28;20489;-71
2023/11/20 07:55:08;;;;;;;5.97;0.80;;;11.50;99.90;;;;;;5051997;28;20035;-72
2023/11/20 07:57:34;;;;;;;3.40;0.80;;;11.50;99.90;;;;;;5045827;28;20039;-69
2023/11/20 08:00:00;;;;;;;1.30;0.45;;;11.50;99.90;;;;;;5046802;28;20025;-69
2023/11/20 08:02:26;;;;;;;6.22;0.52;;;11.60;99.90;;;;;;5050143;28;20033;-69
2023/11/20 08:04:52;;;;;;;6.60;0.93;;;11.50;99.90;;;;;;5052034;28;20029;-70
2023/11/20 08:07:18;;;;;;;1.10;1.00;;;11.50;99.90;;;;;;5049940;28;20052;-69
2023/11/20 08:09:44;;;;;;;0.73;0.30;;;11.50;99.90;;;;;;5050778;28;20416;-69
2023/11/20 08:12:10;;;;;;;6.93;0.52;;;11.50;99.90;;;;;;5049161;28;20056;-70
2023/11/20 08:14:36;;;;;;;1.63;0.45;;;11.50;99.90;;;;;;5051258;28;20512;-70
2023/11/20 08:17:02;;;;;;;5.20;0.32;;;11.50;99.90;;;;;;5048913;28;20036;-71
2023/11/20 08:19:29;;;;;;;0.80;0.65;;;11.50;99.90;;;;;;5051195;28;20355;-72
2023/11/20 08:21:55;;;;;;;2.35;0.40;;;11.50;99.90;;;;;;5050609;28;20103;-72
2023/11/20 08:24:21;;;;;;;1.92;0.55;;;11.60;99.90;;;;;;5050920;28;20570;-71
2023/11/20 08:26:47;;;;;;;3.05;1.05;;;11.60;99.90;;;;;;5049340;28;20044;-71
2023/11/20 08:29:16;;;;;;;2.75;0.80;;;11.50;99.90;;;;;;5045784;28;20029;-72
2023/11/20 08:31:46;;;;;;;1.48;0.40;;;11.60;99.90;;;;;;5065938;28;20040;-75
2023/11/20 08:34:12;;;;;;;1.52;0.40;;;11.70;99.90;;;;;;5052205;28;20025;-72
2023/11/20 08:36:39;;;;;;;2.50;0.63;;;11.70;99.90;;;;;;5050568;28;20132;-73
2023/11/20 08:39:11;;;;;;;0.93;0.28;;;11.80;99.90;;;;;;5050206;28;20025;-73
2023/11/20 08:41:39;;;;;;;7.80;0.50;;;11.90;99.90;;;;;;5049400;28;20036;-73
2023/11/20 08:44:09;;;;;;;12.70;0.90;;;11.80;99.90;;;;;;5050048;28;20040;-73
2023/11/20 08:46:35;;;;;;;0.40;0.20;;;11.80;99.90;;;;;;5049024;28;20127;-75
2023/11/20 08:49:02;;;;;;;5.78;0.93;;;11.90;99.90;;;;;;5050272;28;20465;-73
2023/11/20 08:51:29;;;;;;;6.13;0.63;;;11.90;99.90;;;;;;5054534;28;20060;-73
2023/11/20 08:53:54;;;;;;;2.85;0.47;;;12.00;99.90;;;;;;5046625;28;20029;-73
2023/11/20 08:56:20;;;;;;;0.70;0.20;;;12.20;99.90;;;;;;5045748;28;20072;-75
2023/11/20 08:58:47;;;;;;;2.33;0.47;;;12.10;99.90;;;;;;5063788;28;20029;-74
2023/11/20 09:01:13;;;;;;;2.63;0.65;;;12.10;99.90;;;;;;5048423;28;20021;-74
2023/11/20 09:03:38;;;;;;;2.45;0.90;;;12.10;99.90;;;;;;5048533;28;20033;-73
2023/11/20 09:06:05;;;;;;;7.50;0.60;;;12.10;99.90;;;;;;5054098;28;20029;-74
2023/11/20 09:08:31;;;;;;;3.42;0.63;;;12.20;99.90;;;;;;5056937;28;20040;-75
2023/11/20 09:10:56;;;;;;;5.15;0.50;;;12.10;99.90;;;;;;5046804;28;20045;-75
2023/11/20 09:13:22;;;;;;;1.38;0.50;;;12.20;99.90;;;;;;5046384;28;20057;-75
2023/11/20 09:15:48;;;;;;;1.45;0.60;;;12.30;99.90;;;;;;5039398;28;20052;-75
2023/11/20 09:18:14;;;;;;;4.45;0.40;;;12.30;99.90;;;;;;5042091;28;20442;-77
2023/11/20 09:20:40;;;;;;;1.75;0.30;;;12.20;99.90;;;;;;5045615;28;20024;-76
2023/11/20 09:23:06;;;;;;;8.43;0.65;;;12.20;99.90;;;;;;5047214;28;20029;-77
2023/11/20 09:25:31;;;;;;;0.88;0.40;;;12.20;99.90;;;;;;5051293;28;20045;-74
2023/11/20 09:27:58;;;;;;;2.28;0.32;;;12.20;99.90;;;;;;5048402;28;20033;-74
2023/11/20 09:30:24;;;;;;;7.47;0.63;;;12.20;99.90;;;;;;5038212;28;20033;-75
2023/11/20 09:32:50;;;;;;;2.47;0.40;;;12.40;99.90;;;;;;5046403;28;20507;-75
2023/11/20 09:35:18;;;;;;;1.95;0.43;;;12.50;99.90;;;;;;5048359;28;20033;-75
2023/11/20 09:37:44;;;;;;;2.90;0.35;;;12.50;99.90;;;;;;5055118;28;20053;-75
2023/11/20 09:40:11;;;;;;;1.20;0.43;;;12.50;99.90;;;;;;5048969;28;20081;-72
2023/11/20 09:42:39;;;;;;;0.57;0.38;;;12.40;99.90;;;;;;5051271;28;20029;-75
2023/11/20 09:45:13;;;;;;;0.82;0.47;;;12.20;99.90;;;;;;5049350;28;20140;-75
2023/11/20 09:47:40;;;;;;;2.00;0.30;;;12.20;99.90;;;;;;5051308;28;20094;-73
2023/11/20 09:50:10;;;;;;;6.00;0.90;;;12.10;99.90;;;;;;5048179;28;20493;-73
2023/11/20 09:52:38;;;;;;;0.77;0.40;;;12.10;99.90;;;;;;5044947;28;20037;-75
2023/11/20 09:55:07;;;;;;;2.20;0.35;;;12.10;99.90;;;;;;5052386;28;20036;-75
2023/11/20 09:57:33;;;;;;;3.83;0.43;;;12.00;99.90;;;;;;5065791;28;20036;-75
2023/11/20 09:59:59;;;;;;;0.65;0.32;;;12.20;99.90;;;;;;5053464;28;20092;-74
2023/11/20 10:02:28;;;;;;;3.90;0.45;;;13.40;99.90;;;;;;5070363;28;20029;-75
2023/11/20 10:04:54;;;;;;;0.28;0.10;;;14.50;99.90;;;;;;5052759;28;20041;-73
2023/11/20 10:07:30;;;;;;;0.75;0.22;;;14.30;99.90;;;;;;5048864;28;20085;-74
2023/11/20 10:09:57;;;;;;;1.00;0.20;;;13.60;99.90;;;;;;5066903;28;20029;-76
2023/11/20 10:12:27;;;;;;;0.38;0.30;;;13.30;99.90;;;;;;5051784;28;20033;-77
2023/11/20 10:14:53;;;;;;;0.52;0.20;;;13.90;99.90;;;;;;5043948;28;20043;-76
2023/11/20 10:17:21;;;;;;;0.85;0.50;;;14.20;99.90;;;;;;5040588;28;20108;-79
2023/11/20 10:19:47;;;;;;;0.45;0.20;;;13.80;99.90;;;;;;5055109;28;20071;-75
2023/11/20 10:22:15;;;;;;;3.42;0.32;;;15.00;99.90;;;;;;5041951;28;20033;-75
2023/11/20 10:24:44;;;;;;;4.63;0.82;;;15.50;99.90;;;;;;5054690;28;20090;-74
2023/11/20 10:27:12;;;;;;;0.73;0.63;;;16.60;99.90;;;;;;5032013;28;20037;-81
2023/11/20 10:29:38;;;;;;;1.40;0.40;;;16.00;99.90;;;;;;5034225;28;20424;-82
2023/11/20 10:32:05;;;;;;;0.35;0.15;;;15.80;99.90;;;;;;5036142;28;20488;-78
2023/11/20 10:34:31;;;;;;;3.65;0.73;;;15.70;99.90;;;;;;5037028;28;20038;-79
2023/11/20 10:37:05;;;;;;;0.82;0.22;;;16.10;99.90;;;;;;5012341;28;20037;-77
2023/11/20 10:39:32;;;;;;;3.65;0.50;;;16.50;99.90;;;;;;5032390;28;20033;-80
2023/11/20 10:41:58;;;;;;;1.65;0.38;;;16.10;99.90;;;;;;5055663;28;20509;-77
2023/11/20 10:44:27;;;;;;;7.53;1.27;;;16.50;99.90;;;;;;5056171;28;20029;-77
2023/11/20 10:46:55;;;;;;;0.32;0.10;;;16.60;99.90;;;;;;5059042;28;20036;-76
2023/11/20 10:49:24;;;;;;;2.13;0.40;;;15.00;99.90;;;;;;5057359;28;20032;-76
2023/11/20 10:51:58;;;;;;;1.17;0.47;;;14.60;99.90;;;;;;5056435;28;20032;-79
2023/11/20 10:54:29;;;;;;;1.77;0.45;;;14.10;99.90;;;;;;5052450;28;20017;-78
2023/11/20 10:57:04;;;;;;;2.75;0.35;;;13.60;99.90;;;;;;5054067;28;20031;-78
2023/11/20 10:59:35;;;;;;;3.25;0.90;;;13.50;99.90;;;;;;5055640;28;20049;-78
2023/11/20 11:02:08;;;;;;;18.83;1.38;;;13.10;99.90;;;;;;5060890;28;20017;-79
2023/11/20 11:04:36;;;;;;;2.38;0.50;;;13.40;99.90;;;;;;5060613;28;20036;-78
2023/11/20 11:07:04;;;;;;;1.20;0.47;;;13.50;99.90;;;;;;5044866;28;20049;-78
2023/11/20 11:09:30;;;;;;;1.58;0.17;;;13.40;99.90;;;;;;5069519;28;20035;-78
2023/11/20 11:11:58;;;;;;;0.93;0.40;;;14.20;99.90;;;;;;5039653;28;20029;-78
2023/11/20 11:14:24;;;;;;;0.73;0.25;;;13.90;99.90;;;;;;5072863;28;20037;-78
2023/11/20 11:17:06;;;;;;;0.77;0.40;;;14.00;99.90;;;;;;5052091;28;20021;-79
2023/11/20 11:19:42;;;;;;;6.22;0.32;;;14.70;99.90;;;;;;5059626;28;20284;-78
2023/11/20 11:22:13;;;;;;;3.05;0.55;;;14.40;99.90;;;;;;5061085;28;20032;-78
2023/11/20 11:24:44;;;;;;;;;;;15.40;99.90;;;;;;5060865;28;20029;-78
2023/11/20 11:27:18;;;;;;;0.38;0.17;;;17.00;99.90;;;;;;5060077;28;20015;-78
2023/11/20 11:29:56;;;;;;;0.32;0.20;;;16.70;99.90;;;;;;5037239;28;20029;-74
2023/11/20 11:32:33;;;;;;;1.58;0.52;;;16.70;99.90;;;;;;5050958;28;20120;-73
2023/11/20 11:35:07;;;;;;;1.23;0.75;;;17.30;99.90;;;;;;5045317;28;20079;-73
2023/11/20 11:37:49;;;;;;;1.45;0.28;;;16.00;99.90;;;;;;5045665;28;20037;-73
2023/11/20 11:40:33;;;;;;;2.03;0.38;;;15.50;99.90;;;;;;5050574;28;20021;-73
2023/11/20 11:43:26;;;;;;;7.68;0.77;;;15.40;99.90;;;;;;5049075;28;20112;-73
2023/11/20 11:45:53;;;;;;;0.80;0.30;;;16.50;99.90;;;;;;5041403;28;20491;-74
2023/11/20 11:48:18;;;;;;;0.30;0.00;;;16.30;99.90;;;;;;5061886;28;20448;-72
2023/11/20 11:50:47;;;;;;;3.13;0.30;;;16.00;99.90;;;;;;5049799;28;20057;-72
2023/11/20 11:53:13;;;;;;;0.32;0.20;;;15.20;99.90;;;;;;5050605;28;20044;-72
2023/11/20 11:55:43;;;;;;;0.82;0.22;;;14.40;99.90;;;;;;5051331;28;20032;-73
2023/11/20 11:58:15;;;;;;;0.43;0.30;;;13.90;99.90;;;;;;5061616;28;20457;-72
2023/11/20 12:00:42;;;;;;;0.10;0.10;;;13.80;99.90;;;;;;5049146;28;20040;-70
2023/11/20 12:03:16;;;;;;;1.42;0.75;;;13.70;99.90;;;;;;5046332;28;20033;-70
2023/11/20 12:05:54;;;;;;;0.75;0.38;;;13.50;99.90;;;;;;5049770;28;20396;-72
2023/11/20 12:08:22;;;;;;;0.20;0.20;;;13.50;99.90;;;;;;5046947;28;20052;-72
2023/11/20 12:10:52;;;;;;;0.52;0.17;;;13.50;99.90;;;;;;5048543;28;20497;-70
2023/11/20 12:13:26;;;;;;;0.10;0.10;;;13.50;99.90;;;;;;5061917;28;20071;-71
2023/11/20 12:15:59;;;;;;;1.20;0.20;;;13.10;99.90;;;;;;5048889;28;20655;-72
2023/11/20 12:18:32;;;;;;;2.65;0.28;;;13.10;99.90;;;;;;5062288;28;20124;-72
2023/11/20 12:21:04;;;;;;;0.95;0.52;;;13.30;99.90;;;;;;5049977;28;20039;-72
2023/11/20 12:23:35;;;;;;;0.70;0.20;;;13.90;99.90;;;;;;5049710;28;20041;-72
2023/11/20 12:26:09;;;;;;;0.00;0.00;;;14.10;99.90;;;;;;5049230;28;20120;-72
2023/11/20 12:28:37;;;;;;;2.13;0.32;;;14.70;99.90;;;;;;5050734;28;20036;-71
2023/11/20 12:31:12;;;;;;;0.00;0.00;;;15.50;99.90;;;;;;5046698;28;20043;-71
2023/11/20 12:33:42;;;;;;;1.35;0.10;;;15.30;99.90;;;;;;5063660;28;20795;-72
2023/11/20 12:36:10;;;;;;;1.30;0.13;;;16.10;99.90;;;;;;5047478;28;20034;-72
2023/11/20 12:38:37;;;;;;;0.80;0.25;;;15.70;99.90;;;;;;5065370;28;20053;-72
2023/11/20 12:41:07;;;;;;;1.10;0.30;;;15.60;99.90;;;;;;5048219;28;20091;-72
2023/11/20 12:43:35;;;;;;;0.52;0.20;;;15.80;99.90;;;;;;5046962;28;20433;-72
2023/11/20 12:46:05;;;;;;;2.13;0.40;;;15.80;99.90;;;;;;5050057;28;20036;-76